Аэропорт
Худжанд (UTDL)

 UTDL / LBD
ЗЦ Центральная Азия
Душанбе (UTDD)
Душанбе (UTDD)
 40.21540, 69.69470  / 1450 ft

 UTDL 101800Z 25004MPS 9999 FEW060CB BKN086 28/10 Q1005 R26/CLRD70 NOSIG RMK QFE716/0955
 TAF UTDL 101200Z 1013/1101 24005MPS 9999 FEW060CB SCT080 TEMPO 1013/1101 VRB02MPS
UTDL_aip_1705
показать схемы

2020 © VATRUS division (Privacy Policy)